Weather History for KAIG - September, 2012

Change the Weather History Date:

Saturday, September 22, 2012

  Actual Average Record
Temperature  
Mean Temperature 42 °F -  
Max Temperature 53 °F 61 °F 80 °F (2004)
Min Temperature 31 °F 40 °F 21 °F (1974)
Degree Days  
Heating Degree Days 23    
Moisture  
Dew Point 33 °F    
Average Humidity 74    
Maximum Humidity 100    
Minimum Humidity 39    
Precipitation  
Precipitation 0.00 in - - ()
Sea Level Pressure  
Sea Level Pressure 29.95 in    
Wind  
Wind Speed 7 mph (NW)    
Max Wind Speed 20 mph    
Max Gust Speed 29 mph    
Visibility 10 miles    
Events Fog    
Averages and records for this station are not official NWS values.
T = Trace of Precipitation, MM = Missing Value Source: NWS Daily Summary

Daily Weather History Graph

Daily Weather History Graph

Search for Another Location

Airport or City:

Trip Planner

Search our weather history database for the weather conditions in past years. The results will help you decide how hot, cold, wet, or windy it might be!

Date:

Astronomy

Sep. 22, 2012 Rise Set
Actual Time 6:44 AM CDT 6:52 PM CDT
Civil Twilight 6:14 AM CDT 7:22 PM CDT
Nautical Twilight 5:40 AM CDT 7:56 PM CDT
Astronomical Twilight 5:04 AM CDT 8:32 PM CDT
Moon 2:18 PM CDT 11:41 PM CDT
Length of Visible Light 13h 07m
Length of Day
12h 08m
Waxing Crescent, 49% of the Moon is Illuminated
Sep 22
Waxing Crescent
Sep 22
First Quarter
Sep 29
Full
Oct 8
Last Quarter
Oct 15
New

Hourly Weather History & Observations

Time (CDT) Temp. Windchill Dew Point Humidity Pressure Visibility Wind Dir Wind Speed Gust Speed Precip Events Conditions
12:15 AM 32.7 °F 29.6 °F 32.7 °F 100% 29.76 in 0.2 mi North 3.5 mph - N/A Fog Fog
12:35 AM 32.7 °F 29.6 °F 32.7 °F 100% 29.75 in 0.5 mi ENE 3.5 mph - N/A Fog Fog
12:55 AM 32.0 °F - 32.0 °F 100% 29.74 in 10.0 mi Calm Calm - N/A   Scattered Clouds
1:15 AM 32.4 °F - 32.4 °F 100% 29.74 in 7.0 mi Calm Calm - N/A   Clear
1:35 AM 32.0 °F - 32.0 °F 100% 29.74 in 10.0 mi Calm Calm - N/A   Clear
1:55 AM 32.0 °F - 31.8 °F 99% 29.74 in 10.0 mi Calm Calm - N/A   Clear
2:15 AM 31.6 °F 27.0 °F 31.5 °F 99% 29.73 in 10.0 mi ENE 4.6 mph - N/A   Clear
2:35 AM 32.5 °F 27.1 °F 32.4 °F 99% 29.74 in 10.0 mi WNW 5.8 mph - N/A   Mostly Cloudy
2:55 AM 35.6 °F - 35.6 °F 100% 29.74 in 10.0 mi Calm Calm - N/A   Overcast
3:15 AM 35.6 °F - 35.4 °F 99% 29.74 in 10.0 mi Calm Calm - N/A   Overcast
3:35 AM 36.1 °F - 36.0 °F 99% 29.75 in 10.0 mi Calm Calm - N/A   Overcast
3:55 AM 36.1 °F - 36.0 °F 99% 29.76 in 10.0 mi Calm Calm - N/A   Mostly Cloudy
4:15 AM 36.5 °F 33.9 °F 36.1 °F 99% 29.76 in 10.0 mi WNW 3.5 mph - N/A   Mostly Cloudy
4:35 AM 36.9 °F 34.3 °F 36.5 °F 99% 29.78 in 10.0 mi NNW 3.5 mph - N/A   Mostly Cloudy
4:55 AM 37.0 °F 32.4 °F 36.9 °F 99% 29.78 in 10.0 mi North 5.8 mph - N/A   Mostly Cloudy
5:15 AM 37.2 °F 33.6 °F 36.7 °F 98% 29.79 in 10.0 mi NW 4.6 mph - N/A   Overcast
5:35 AM 37.4 °F - 36.5 °F 97% 29.80 in 10.0 mi Calm Calm - N/A   Overcast
5:55 AM 37.4 °F 33.8 °F 36.5 °F 97% 29.81 in 10.0 mi NNW 4.6 mph - N/A   Overcast
6:15 AM 37.0 °F - 36.5 °F 98% 29.83 in 10.0 mi Calm Calm - N/A   Overcast
6:35 AM 37.2 °F 33.6 °F 36.5 °F 97% 29.84 in 10.0 mi NW 4.6 mph - N/A   Overcast
6:55 AM 36.0 °F 32.1 °F 35.4 °F 98% 29.85 in 10.0 mi NW 4.6 mph - N/A   Scattered Clouds
7:15 AM 35.6 °F 30.7 °F 35.2 °F 99% 29.86 in 10.0 mi NW 5.8 mph - N/A   Clear
7:35 AM 36.5 °F 31.0 °F 36.1 °F 99% 29.88 in 10.0 mi NNW 6.9 mph - N/A   Mostly Cloudy
7:55 AM 37.9 °F 33.5 °F 37.0 °F 97% 29.89 in 10.0 mi NNW 5.8 mph - N/A   Overcast
8:15 AM 39.7 °F 34.3 °F 38.1 °F 94% 29.90 in 10.0 mi NNW 8.1 mph - N/A   Overcast
8:35 AM 41.4 °F 35.2 °F 39.0 °F 91% 29.91 in 10.0 mi North 10.4 mph - N/A   Scattered Clouds
8:55 AM 43.2 °F 36.6 °F 39.4 °F 86% 29.92 in 10.0 mi North 12.7 mph 17.3 mph N/A   Clear
9:15 AM 45.0 °F 38.5 °F 39.2 °F 80% 29.93 in 10.0 mi NNW 13.8 mph - N/A   Clear
9:55 AM 46.6 °F - 38.5 °F 73% 29.94 in 10.0 mi NNW 15.0 mph 20.7 mph N/A   Mostly Cloudy
10:15 AM 48.4 °F - 39.4 °F 71% 29.95 in 10.0 mi North 16.1 mph 23.0 mph N/A   Scattered Clouds
10:35 AM 47.1 °F - 38.1 °F 71% 29.96 in 10.0 mi NNW 16.1 mph 21.9 mph N/A   Mostly Cloudy
10:55 AM 48.7 °F - 37.8 °F 66% 29.97 in 10.0 mi North 16.1 mph 21.9 mph N/A   Mostly Cloudy
11:15 AM 48.4 °F - 36.0 °F 62% 29.98 in 10.0 mi NNW 18.4 mph 24.2 mph N/A   Mostly Cloudy
11:35 AM 47.3 °F - 38.1 °F 70% 29.98 in 10.0 mi NNW 11.5 mph - N/A   Overcast
11:55 AM 50.5 °F - 36.1 °F 58% 29.98 in 10.0 mi NW 15.0 mph 20.7 mph N/A   Mostly Cloudy
12:15 PM 52.0 °F - 34.3 °F 51% 29.99 in 10.0 mi NNW 16.1 mph 25.3 mph N/A   Mostly Cloudy
12:35 PM 48.4 °F - 34.2 °F 58% 30.01 in 10.0 mi North 17.3 mph 26.5 mph N/A   Mostly Cloudy
12:55 PM 52.3 °F - 34.7 °F 51% 30.01 in 10.0 mi NW 13.8 mph 18.4 mph N/A   Mostly Cloudy
1:15 PM 49.3 °F - 36.1 °F 61% 30.02 in 10.0 mi North 18.4 mph 28.8 mph N/A   Mostly Cloudy
1:35 PM 51.4 °F - 34.3 °F 52% 30.01 in 10.0 mi NNW 16.1 mph 19.6 mph N/A   Scattered Clouds
1:55 PM 52.7 °F - 29.7 °F 41% 30.01 in 10.0 mi NW 17.3 mph 28.8 mph N/A   Scattered Clouds
2:15 PM 51.6 °F - 30.0 °F 44% 30.02 in 10.0 mi NNW 18.4 mph - N/A   Scattered Clouds
2:35 PM 53.2 °F - 29.3 °F 40% 30.02 in 10.0 mi WNW 18.4 mph 23.0 mph N/A   Scattered Clouds
2:55 PM 52.5 °F - 28.9 °F 40% 30.02 in 10.0 mi NW 16.1 mph 24.2 mph N/A   Scattered Clouds
3:15 PM 50.7 °F - 28.4 °F 42% 30.03 in 10.0 mi NNW 13.8 mph 23.0 mph N/A   Mostly Cloudy
3:35 PM 52.0 °F - 28.9 °F 41% 30.03 in 10.0 mi WNW 12.7 mph 26.5 mph N/A   Mostly Cloudy
3:55 PM 52.2 °F - 27.7 °F 39% 30.04 in 10.0 mi NW 17.3 mph 25.3 mph N/A   Mostly Cloudy
4:15 PM 51.4 °F - 29.1 °F 42% 30.05 in 10.0 mi NW 13.8 mph 24.2 mph N/A   Mostly Cloudy
4:35 PM 50.4 °F - 28.4 °F 43% 30.05 in 10.0 mi WNW 19.6 mph 28.8 mph N/A   Mostly Cloudy
4:55 PM 49.8 °F - 28.6 °F 44% 30.05 in 10.0 mi WNW 15.0 mph 20.7 mph N/A   Mostly Cloudy
5:15 PM 48.6 °F - 28.4 °F 46% 30.06 in 10.0 mi NW 13.8 mph 26.5 mph N/A   Overcast
5:35 PM 47.7 °F - 29.1 °F 49% 30.07 in 10.0 mi WNW 12.7 mph 18.4 mph N/A   Mostly Cloudy
5:55 PM 48.0 °F - 28.6 °F 47% 30.07 in 10.0 mi NW 15.0 mph 21.9 mph N/A   Scattered Clouds
6:15 PM 47.5 °F - 29.3 °F 49% 30.08 in 10.0 mi WNW 9.2 mph 17.3 mph N/A   Mostly Cloudy
6:35 PM 46.6 °F - 29.5 °F 51% 30.08 in 10.0 mi WNW 11.5 mph 19.6 mph N/A   Overcast
6:55 PM 45.7 °F 39.5 °F 29.3 °F 53% 30.09 in 10.0 mi NW 13.8 mph 18.4 mph N/A   Overcast
7:15 PM 45.0 °F 40.1 °F 29.1 °F 54% 30.09 in 10.0 mi NW 9.2 mph 16.1 mph N/A   Overcast
7:35 PM 43.2 °F 39.0 °F 29.8 °F 59% 30.09 in 10.0 mi NW 6.9 mph - N/A   Mostly Cloudy
7:55 PM 42.8 °F 37.5 °F 30.2 °F 61% 30.10 in 10.0 mi NW 9.2 mph - N/A   Mostly Cloudy
8:15 PM 43.2 °F 37.4 °F 31.6 °F 64% 30.10 in 10.0 mi NW 10.4 mph 16.1 mph N/A   Mostly Cloudy
8:35 PM 42.1 °F 36.6 °F 32.0 °F 67% 30.11 in 10.0 mi NW 9.2 mph - N/A   Overcast
8:55 PM 40.5 °F 35.8 °F 32.0 °F 72% 30.11 in 10.0 mi NW 6.9 mph - N/A   Scattered Clouds
9:15 PM 40.1 °F 36.9 °F 32.2 °F 73% 30.11 in 10.0 mi NW 4.6 mph - N/A   Mostly Cloudy
9:35 PM 38.7 °F 34.3 °F 32.2 °F 78% 30.11 in 10.0 mi WNW 5.8 mph - N/A   Scattered Clouds
9:55 PM 37.6 °F 33.1 °F 32.5 °F 82% 30.12 in 10.0 mi WNW 5.8 mph - N/A   Mostly Cloudy
10:15 PM 39.2 °F 33.6 °F 33.3 °F 79% 30.13 in 10.0 mi NW 8.1 mph - N/A   Overcast
10:35 PM 39.2 °F 35.0 °F 33.6 °F 80% 30.13 in 10.0 mi WNW 5.8 mph - N/A   Overcast
10:55 PM 39.2 °F 35.9 °F 33.8 °F 81% 30.13 in 10.0 mi WNW 4.6 mph - N/A   Overcast
11:15 PM 38.7 °F 35.2 °F 33.6 °F 82% 30.13 in 10.0 mi West 4.6 mph - N/A   Overcast
11:35 PM 38.7 °F 33.6 °F 33.8 °F 83% 30.13 in 10.0 mi West 6.9 mph - N/A   Overcast
11:55 PM 38.7 °F 34.3 °F 33.8 °F 83% 30.13 in 10.0 mi WNW 5.8 mph - N/A   Overcast